Terminal Aerodrome Forecast
Issued by NWS

Home | Current Version | Previous Version | Text Only | Print | Product List | Glossary On
Versions: 1 2 3 4 5 6 7 8 9 10 11 12 13 14 15 16 17
979
FTPA31 PHFO 281948 AAB
TAFHLI
TAF AMD
PHLI 281948Z 2820/2918 05013KT P6SM VCSH FEW022 BKN045
      TEMPO 2820/2822 3SM -SHRA BR SCT015 BKN022 OVC045=

USA.gov is the U.S. government's official web portal to all federal, state and local government web resources and services.